sensor_id;sensor_type;location;lat;lon;timestamp;temperature;humidity
31991;DHT22;18508;49.386;8.370;2022-08-19T00:01:50;21.00;99.90
31991;DHT22;18508;49.386;8.370;2022-08-19T00:04:22;21.00;99.90
31991;DHT22;18508;49.386;8.370;2022-08-19T00:06:51;21.00;99.90
31991;DHT22;18508;49.386;8.370;2022-08-19T00:09:23;21.00;99.90
31991;DHT22;18508;49.386;8.370;2022-08-19T00:11:52;20.90;99.90
31991;DHT22;18508;49.386;8.370;2022-08-19T00:14:23;20.90;99.90
31991;DHT22;18508;49.386;8.370;2022-08-19T00:16:53;20.90;99.90
31991;DHT22;18508;49.386;8.370;2022-08-19T00:19:23;20.90;99.90
31991;DHT22;18508;49.386;8.370;2022-08-19T00:22:00;20.90;99.90
31991;DHT22;18508;49.386;8.370;2022-08-19T00:24:31;20.80;99.90
31991;DHT22;18508;49.386;8.370;2022-08-19T00:27:07;20.80;99.90
31991;DHT22;18508;49.386;8.370;2022-08-19T00:29:52;20.80;99.90
31991;DHT22;18508;49.386;8.370;2022-08-19T00:32:21;20.80;99.90
31991;DHT22;18508;49.386;8.370;2022-08-19T00:34:50;20.80;99.90
31991;DHT22;18508;49.386;8.370;2022-08-19T00:37:21;20.80;99.90
31991;DHT22;18508;49.386;8.370;2022-08-19T00:39:51;20.70;99.90
31991;DHT22;18508;49.386;8.370;2022-08-19T00:42:20;20.80;99.90
31991;DHT22;18508;49.386;8.370;2022-08-19T00:44:50;20.80;99.90
31991;DHT22;18508;49.386;8.370;2022-08-19T00:47:18;20.80;99.90
31991;DHT22;18508;49.386;8.370;2022-08-19T00:49:50;20.80;99.90
31991;DHT22;18508;49.386;8.370;2022-08-19T00:52:22;20.80;99.90
31991;DHT22;18508;49.386;8.370;2022-08-19T00:54:53;20.80;99.90
31991;DHT22;18508;49.386;8.370;2022-08-19T00:57:26;20.80;99.90
31991;DHT22;18508;49.386;8.370;2022-08-19T00:59:56;20.80;99.90
31991;DHT22;18508;49.386;8.370;2022-08-19T01:02:31;20.80;99.90
31991;DHT22;18508;49.386;8.370;2022-08-19T01:05:02;20.80;99.90
31991;DHT22;18508;49.386;8.370;2022-08-19T01:07:33;20.80;99.90
31991;DHT22;18508;49.386;8.370;2022-08-19T01:10:08;20.80;99.90
31991;DHT22;18508;49.386;8.370;2022-08-19T01:12:37;20.80;99.90
31991;DHT22;18508;49.386;8.370;2022-08-19T01:15:09;20.80;99.90
31991;DHT22;18508;49.386;8.370;2022-08-19T01:17:39;20.80;99.90
31991;DHT22;18508;49.386;8.370;2022-08-19T01:20:11;20.80;99.90
31991;DHT22;18508;49.386;8.370;2022-08-19T01:22:45;20.80;99.90
31991;DHT22;18508;49.386;8.370;2022-08-19T01:25:14;20.80;99.90
31991;DHT22;18508;49.386;8.370;2022-08-19T01:27:48;20.80;99.90
31991;DHT22;18508;49.386;8.370;2022-08-19T01:30:21;20.80;99.90
31991;DHT22;18508;49.386;8.370;2022-08-19T01:32:50;20.80;99.90
31991;DHT22;18508;49.386;8.370;2022-08-19T01:35:25;20.80;99.90
31991;DHT22;18508;49.386;8.370;2022-08-19T01:38:01;20.80;99.90
31991;DHT22;18508;49.386;8.370;2022-08-19T01:40:37;20.80;99.90
31991;DHT22;18508;49.386;8.370;2022-08-19T01:43:09;20.80;99.90
31991;DHT22;18508;49.386;8.370;2022-08-19T01:45:38;20.80;99.90
31991;DHT22;18508;49.386;8.370;2022-08-19T01:48:13;20.80;99.90
31991;DHT22;18508;49.386;8.370;2022-08-19T01:50:45;20.70;99.90
31991;DHT22;18508;49.386;8.370;2022-08-19T01:53:16;20.80;99.90
31991;DHT22;18508;49.386;8.370;2022-08-19T01:55:45;20.80;99.90
31991;DHT22;18508;49.386;8.370;2022-08-19T01:58:18;20.80;99.90
31991;DHT22;18508;49.386;8.370;2022-08-19T02:00:48;20.70;99.90
31991;DHT22;18508;49.386;8.370;2022-08-19T02:03:16;20.80;99.90
31991;DHT22;18508;49.386;8.370;2022-08-19T02:05:45;20.80;99.90
31991;DHT22;18508;49.386;8.370;2022-08-19T02:08:18;20.80;99.90
31991;DHT22;18508;49.386;8.370;2022-08-19T02:10:50;20.70;99.90
31991;DHT22;18508;49.386;8.370;2022-08-19T02:13:21;20.80;99.90
31991;DHT22;18508;49.386;8.370;2022-08-19T02:15:52;20.80;99.90
31991;DHT22;18508;49.386;8.370;2022-08-19T02:18:23;20.80;99.90
31991;DHT22;18508;49.386;8.370;2022-08-19T02:20:55;20.70;99.90
31991;DHT22;18508;49.386;8.370;2022-08-19T02:23:31;20.70;99.90
31991;DHT22;18508;49.386;8.370;2022-08-19T02:26:03;20.70;99.90
31991;DHT22;18508;49.386;8.370;2022-08-19T02:28:33;20.80;99.90
31991;DHT22;18508;49.386;8.370;2022-08-19T02:31:09;20.80;99.90
31991;DHT22;18508;49.386;8.370;2022-08-19T02:33:43;20.80;99.90
31991;DHT22;18508;49.386;8.370;2022-08-19T02:36:14;20.80;99.90
31991;DHT22;18508;49.386;8.370;2022-08-19T02:38:48;20.80;99.90
31991;DHT22;18508;49.386;8.370;2022-08-19T02:41:23;20.80;99.90
31991;DHT22;18508;49.386;8.370;2022-08-19T02:43:55;20.80;99.90
31991;DHT22;18508;49.386;8.370;2022-08-19T02:46:48;20.80;99.90
31991;DHT22;18508;49.386;8.370;2022-08-19T02:49:18;20.80;99.90
31991;DHT22;18508;49.386;8.370;2022-08-19T02:51:51;20.80;99.90
31991;DHT22;18508;49.386;8.370;2022-08-19T02:54:24;20.70;99.90
31991;DHT22;18508;49.386;8.370;2022-08-19T02:56:52;20.70;99.90
31991;DHT22;18508;49.386;8.370;2022-08-19T02:59:20;20.70;99.90
31991;DHT22;18508;49.386;8.370;2022-08-19T03:01:54;20.70;99.90
31991;DHT22;18508;49.386;8.370;2022-08-19T03:04:22;20.70;99.90
31991;DHT22;18508;49.386;8.370;2022-08-19T03:06:53;20.60;99.90
31991;DHT22;18508;49.386;8.370;2022-08-19T03:09:29;20.60;99.90
31991;DHT22;18508;49.386;8.370;2022-08-19T03:11:58;20.60;99.90
31991;DHT22;18508;49.386;8.370;2022-08-19T03:14:27;20.60;99.90
31991;DHT22;18508;49.386;8.370;2022-08-19T03:17:01;20.50;99.90
31991;DHT22;18508;49.386;8.370;2022-08-19T03:19:31;20.50;99.90
31991;DHT22;18508;49.386;8.370;2022-08-19T03:21:59;20.50;99.90
31991;DHT22;18508;49.386;8.370;2022-08-19T03:24:32;20.50;99.90
31991;DHT22;18508;49.386;8.370;2022-08-19T03:27:00;20.50;99.90
31991;DHT22;18508;49.386;8.370;2022-08-19T03:29:31;20.40;99.90
31991;DHT22;18508;49.386;8.370;2022-08-19T03:32:09;20.40;99.90
31991;DHT22;18508;49.386;8.370;2022-08-19T03:34:59;20.40;99.90
31991;DHT22;18508;49.386;8.370;2022-08-19T03:37:27;20.40;99.90
31991;DHT22;18508;49.386;8.370;2022-08-19T03:39:58;20.40;99.90
31991;DHT22;18508;49.386;8.370;2022-08-19T03:42:26;20.50;99.90
31991;DHT22;18508;49.386;8.370;2022-08-19T03:45:15;20.50;99.90
31991;DHT22;18508;49.386;8.370;2022-08-19T03:47:44;20.50;99.90
31991;DHT22;18508;49.386;8.370;2022-08-19T03:50:14;20.50;99.90
31991;DHT22;18508;49.386;8.370;2022-08-19T03:52:48;20.50;99.90
31991;DHT22;18508;49.386;8.370;2022-08-19T03:55:19;20.50;99.90
31991;DHT22;18508;49.386;8.370;2022-08-19T03:57:48;20.50;99.90
31991;DHT22;18508;49.386;8.370;2022-08-19T04:00:25;20.50;99.90
31991;DHT22;18508;49.386;8.370;2022-08-19T04:02:54;20.50;99.90
31991;DHT22;18508;49.386;8.370;2022-08-19T04:05:27;20.50;99.90
31991;DHT22;18508;49.386;8.370;2022-08-19T04:07:55;20.50;99.90
31991;DHT22;18508;49.386;8.370;2022-08-19T04:10:27;20.50;99.90
31991;DHT22;18508;49.386;8.370;2022-08-19T04:12:55;20.50;99.90
31991;DHT22;18508;49.386;8.370;2022-08-19T04:15:28;20.50;99.90
31991;DHT22;18508;49.386;8.370;2022-08-19T04:18:00;20.50;99.90
31991;DHT22;18508;49.386;8.370;2022-08-19T04:20:28;20.50;99.90
31991;DHT22;18508;49.386;8.370;2022-08-19T04:22:57;20.50;99.90
31991;DHT22;18508;49.386;8.370;2022-08-19T04:25:26;20.50;99.90
31991;DHT22;18508;49.386;8.370;2022-08-19T04:27:54;20.40;99.90
31991;DHT22;18508;49.386;8.370;2022-08-19T04:30:22;20.40;99.90
31991;DHT22;18508;49.386;8.370;2022-08-19T04:32:51;20.40;99.90
31991;DHT22;18508;49.386;8.370;2022-08-19T04:35:22;20.30;99.90
31991;DHT22;18508;49.386;8.370;2022-08-19T04:37:50;20.30;99.90
31991;DHT22;18508;49.386;8.370;2022-08-19T04:40:19;20.30;99.90
31991;DHT22;18508;49.386;8.370;2022-08-19T04:43:06;20.30;99.90
31991;DHT22;18508;49.386;8.370;2022-08-19T04:45:36;20.30;99.90
31991;DHT22;18508;49.386;8.370;2022-08-19T04:48:10;20.20;99.90
31991;DHT22;18508;49.386;8.370;2022-08-19T04:50:54;20.30;99.90
31991;DHT22;18508;49.386;8.370;2022-08-19T04:53:28;20.20;99.90
31991;DHT22;18508;49.386;8.370;2022-08-19T04:56:06;20.30;99.90
31991;DHT22;18508;49.386;8.370;2022-08-19T04:58:37;20.30;99.90
31991;DHT22;18508;49.386;8.370;2022-08-19T05:01:06;20.30;99.90
31991;DHT22;18508;49.386;8.370;2022-08-19T05:03:37;20.40;99.90
31991;DHT22;18508;49.386;8.370;2022-08-19T05:06:15;20.40;99.90
31991;DHT22;18508;49.386;8.370;2022-08-19T05:08:44;20.40;99.90
31991;DHT22;18508;49.386;8.370;2022-08-19T05:11:14;20.40;99.90
31991;DHT22;18508;49.386;8.370;2022-08-19T05:13:43;20.50;99.90
31991;DHT22;18508;49.386;8.370;2022-08-19T05:16:17;20.50;99.90
31991;DHT22;18508;49.386;8.370;2022-08-19T05:18:46;20.60;99.90
31991;DHT22;18508;49.386;8.370;2022-08-19T05:21:34;20.70;99.90
31991;DHT22;18508;49.386;8.370;2022-08-19T05:24:22;20.80;99.90
31991;DHT22;18508;49.386;8.370;2022-08-19T05:26:52;20.90;99.90
31991;DHT22;18508;49.386;8.370;2022-08-19T05:29:24;20.90;99.90
31991;DHT22;18508;49.386;8.370;2022-08-19T05:32:03;20.90;99.90
31991;DHT22;18508;49.386;8.370;2022-08-19T05:34:37;20.90;99.90
31991;DHT22;18508;49.386;8.370;2022-08-19T05:37:08;20.90;99.90
31991;DHT22;18508;49.386;8.370;2022-08-19T05:39:37;21.00;99.90
31991;DHT22;18508;49.386;8.370;2022-08-19T05:42:10;21.00;99.90
31991;DHT22;18508;49.386;8.370;2022-08-19T05:44:43;21.00;99.90
31991;DHT22;18508;49.386;8.370;2022-08-19T05:47:16;21.00;99.90
31991;DHT22;18508;49.386;8.370;2022-08-19T05:49:47;21.10;99.90
31991;DHT22;18508;49.386;8.370;2022-08-19T05:52:19;21.10;99.90
31991;DHT22;18508;49.386;8.370;2022-08-19T05:54:52;21.20;99.90
31991;DHT22;18508;49.386;8.370;2022-08-19T05:57:22;21.20;99.90
31991;DHT22;18508;49.386;8.370;2022-08-19T05:59:51;21.30;99.90
31991;DHT22;18508;49.386;8.370;2022-08-19T06:02:28;21.30;99.90
31991;DHT22;18508;49.386;8.370;2022-08-19T06:04:58;21.40;99.90
31991;DHT22;18508;49.386;8.370;2022-08-19T06:07:28;21.50;99.90
31991;DHT22;18508;49.386;8.370;2022-08-19T06:09:56;21.50;99.90
31991;DHT22;18508;49.386;8.370;2022-08-19T06:12:27;21.50;99.90
31991;DHT22;18508;49.386;8.370;2022-08-19T06:14:58;21.50;99.90
31991;DHT22;18508;49.386;8.370;2022-08-19T06:17:28;21.60;99.90
31991;DHT22;18508;49.386;8.370;2022-08-19T06:19:57;21.60;99.90
31991;DHT22;18508;49.386;8.370;2022-08-19T06:22:27;21.70;99.90
31991;DHT22;18508;49.386;8.370;2022-08-19T06:24:56;21.70;99.90
31991;DHT22;18508;49.386;8.370;2022-08-19T06:27:27;21.80;99.90
31991;DHT22;18508;49.386;8.370;2022-08-19T06:29:57;21.90;99.90
31991;DHT22;18508;49.386;8.370;2022-08-19T06:32:26;21.90;99.90
31991;DHT22;18508;49.386;8.370;2022-08-19T06:34:54;22.00;99.90
31991;DHT22;18508;49.386;8.370;2022-08-19T06:37:23;22.00;99.90
31991;DHT22;18508;49.386;8.370;2022-08-19T06:39:53;22.00;99.90
31991;DHT22;18508;49.386;8.370;2022-08-19T06:42:24;22.00;99.90
31991;DHT22;18508;49.386;8.370;2022-08-19T06:44:55;22.10;99.90
31991;DHT22;18508;49.386;8.370;2022-08-19T06:47:26;22.10;99.90
31991;DHT22;18508;49.386;8.370;2022-08-19T06:50:01;22.10;99.90
31991;DHT22;18508;49.386;8.370;2022-08-19T06:52:35;22.00;99.90
31991;DHT22;18508;49.386;8.370;2022-08-19T06:55:09;22.10;99.90
31991;DHT22;18508;49.386;8.370;2022-08-19T06:57:38;22.10;99.90
31991;DHT22;18508;49.386;8.370;2022-08-19T07:00:16;22.10;99.90
31991;DHT22;18508;49.386;8.370;2022-08-19T07:02:45;22.20;99.90
31991;DHT22;18508;49.386;8.370;2022-08-19T07:05:23;22.20;99.90
31991;DHT22;18508;49.386;8.370;2022-08-19T07:07:54;22.20;99.90
31991;DHT22;18508;49.386;8.370;2022-08-19T07:10:30;22.20;99.90
31991;DHT22;18508;49.386;8.370;2022-08-19T07:12:59;22.20;99.90
31991;DHT22;18508;49.386;8.370;2022-08-19T07:15:33;22.20;99.90
31991;DHT22;18508;49.386;8.370;2022-08-19T07:18:11;22.30;99.90
31991;DHT22;18508;49.386;8.370;2022-08-19T07:20:43;22.40;99.90
31991;DHT22;18508;49.386;8.370;2022-08-19T07:23:18;22.40;99.90
31991;DHT22;18508;49.386;8.370;2022-08-19T07:25:55;22.50;99.90
31991;DHT22;18508;49.386;8.370;2022-08-19T07:28:29;22.70;99.90
31991;DHT22;18508;49.386;8.370;2022-08-19T07:31:03;22.60;99.90
31991;DHT22;18508;49.386;8.370;2022-08-19T07:33:32;22.70;99.90
31991;DHT22;18508;49.386;8.370;2022-08-19T07:36:07;22.70;99.90
31991;DHT22;18508;49.386;8.370;2022-08-19T07:38:43;22.80;99.90
31991;DHT22;18508;49.386;8.370;2022-08-19T07:41:15;22.90;99.90
31991;DHT22;18508;49.386;8.370;2022-08-19T07:43:44;23.10;99.90
31991;DHT22;18508;49.386;8.370;2022-08-19T07:46:12;23.10;99.90
31991;DHT22;18508;49.386;8.370;2022-08-19T07:48:43;23.30;99.90
31991;DHT22;18508;49.386;8.370;2022-08-19T07:51:13;23.40;99.70
31991;DHT22;18508;49.386;8.370;2022-08-19T07:54:03;23.50;96.20
31991;DHT22;18508;49.386;8.370;2022-08-19T07:56:39;23.70;89.60
31991;DHT22;18508;49.386;8.370;2022-08-19T07:59:12;23.90;76.80
31991;DHT22;18508;49.386;8.370;2022-08-19T08:01:44;24.00;72.60
31991;DHT22;18508;49.386;8.370;2022-08-19T08:04:13;24.00;71.30
31991;DHT22;18508;49.386;8.370;2022-08-19T08:07:01;24.10;72.10
31991;DHT22;18508;49.386;8.370;2022-08-19T08:09:49;24.30;67.80
31991;DHT22;18508;49.386;8.370;2022-08-19T08:12:22;24.20;61.30
31991;DHT22;18508;49.386;8.370;2022-08-19T08:15:07;24.00;63.40
31991;DHT22;18508;49.386;8.370;2022-08-19T08:17:46;24.00;75.80
31991;DHT22;18508;49.386;8.370;2022-08-19T08:20:18;23.80;75.50
31991;DHT22;18508;49.386;8.370;2022-08-19T08:22:50;23.70;78.70
31991;DHT22;18508;49.386;8.370;2022-08-19T08:25:36;23.70;75.10
31991;DHT22;18508;49.386;8.370;2022-08-19T08:28:07;23.70;75.10
31991;DHT22;18508;49.386;8.370;2022-08-19T08:30:37;23.80;74.70
31991;DHT22;18508;49.386;8.370;2022-08-19T08:33:11;24.00;62.40
31991;DHT22;18508;49.386;8.370;2022-08-19T08:35:59;24.20;60.50
31991;DHT22;18508;49.386;8.370;2022-08-19T08:38:31;24.40;55.50
31991;DHT22;18508;49.386;8.370;2022-08-19T08:41:17;24.50;51.10
31991;DHT22;18508;49.386;8.370;2022-08-19T08:43:51;24.50;49.60
31991;DHT22;18508;49.386;8.370;2022-08-19T08:46:24;24.30;48.20
31991;DHT22;18508;49.386;8.370;2022-08-19T08:49:02;24.20;51.90
31991;DHT22;18508;49.386;8.370;2022-08-19T08:51:41;24.20;51.60
31991;DHT22;18508;49.386;8.370;2022-08-19T08:54:35;24.20;52.40
31991;DHT22;18508;49.386;8.370;2022-08-19T08:57:25;24.30;54.10
31991;DHT22;18508;49.386;8.370;2022-08-19T09:00:12;24.30;48.50
31991;DHT22;18508;49.386;8.370;2022-08-19T09:02:43;24.40;44.10
31991;DHT22;18508;49.386;8.370;2022-08-19T09:05:18;24.50;40.70
31991;DHT22;18508;49.386;8.370;2022-08-19T09:07:58;24.60;38.80
31991;DHT22;18508;49.386;8.370;2022-08-19T09:10:38;24.60;36.90
31991;DHT22;18508;49.386;8.370;2022-08-19T09:13:18;24.70;36.70
31991;DHT22;18508;49.386;8.370;2022-08-19T09:16:00;24.90;33.50
31991;DHT22;18508;49.386;8.370;2022-08-19T09:18:41;25.00;34.80
31991;DHT22;18508;49.386;8.370;2022-08-19T09:21:10;25.20;30.90
31991;DHT22;18508;49.386;8.370;2022-08-19T09:23:41;25.40;29.80
31991;DHT22;18508;49.386;8.370;2022-08-19T09:26:12;25.60;28.20
31991;DHT22;18508;49.386;8.370;2022-08-19T09:28:43;25.90;26.30
31991;DHT22;18508;49.386;8.370;2022-08-19T09:31:18;26.00;24.30
31991;DHT22;18508;49.386;8.370;2022-08-19T09:33:48;26.20;25.00
31991;DHT22;18508;49.386;8.370;2022-08-19T09:36:20;26.10;21.40
31991;DHT22;18508;49.386;8.370;2022-08-19T09:39:00;26.00;19.90
31991;DHT22;18508;49.386;8.370;2022-08-19T09:41:29;26.00;20.70
31991;DHT22;18508;49.386;8.370;2022-08-19T09:43:59;25.90;22.90
31991;DHT22;18508;49.386;8.370;2022-08-19T09:46:30;25.60;23.30
31991;DHT22;18508;49.386;8.370;2022-08-19T09:49:02;25.50;25.00
31991;DHT22;18508;49.386;8.370;2022-08-19T09:51:33;25.30;26.70
31991;DHT22;18508;49.386;8.370;2022-08-19T09:54:04;25.40;27.60
31991;DHT22;18508;49.386;8.370;2022-08-19T09:56:37;25.60;25.90
31991;DHT22;18508;49.386;8.370;2022-08-19T09:59:10;25.80;23.60
31991;DHT22;18508;49.386;8.370;2022-08-19T10:01:46;26.20;23.30
31991;DHT22;18508;49.386;8.370;2022-08-19T10:04:31;26.60;20.20
31991;DHT22;18508;49.386;8.370;2022-08-19T10:07:14;26.70;17.40
31991;DHT22;18508;49.386;8.370;2022-08-19T10:09:48;26.60;13.50
31991;DHT22;18508;49.386;8.370;2022-08-19T10:12:18;26.40;12.90
31991;DHT22;18508;49.386;8.370;2022-08-19T10:14:52;26.70;14.30
31991;DHT22;18508;49.386;8.370;2022-08-19T10:17:22;26.50;12.40
31991;DHT22;18508;49.386;8.370;2022-08-19T10:19:57;26.40;9.70
31991;DHT22;18508;49.386;8.370;2022-08-19T10:22:30;26.30;9.60
31991;DHT22;18508;49.386;8.370;2022-08-19T10:25:01;26.50;9.10
31991;DHT22;18508;49.386;8.370;2022-08-19T10:27:29;26.80;9.70
31991;DHT22;18508;49.386;8.370;2022-08-19T10:29:58;26.80;5.80
31991;DHT22;18508;49.386;8.370;2022-08-19T10:32:28;26.70;4.30
31991;DHT22;18508;49.386;8.370;2022-08-19T10:35:00;26.80;5.30
31991;DHT22;18508;49.386;8.370;2022-08-19T10:37:44;27.00;4.40
31991;DHT22;18508;49.386;8.370;2022-08-19T10:40:23;27.20;1.30
31991;DHT22;18508;49.386;8.370;2022-08-19T10:42:51;26.90;1.00
31991;DHT22;18508;49.386;8.370;2022-08-19T10:45:23;27.00;1.00
31991;DHT22;18508;49.386;8.370;2022-08-19T10:47:57;27.30;1.00
31991;DHT22;18508;49.386;8.370;2022-08-19T10:50:26;27.40;1.00
31991;DHT22;18508;49.386;8.370;2022-08-19T10:53:20;27.40;1.00
31991;DHT22;18508;49.386;8.370;2022-08-19T10:55:52;27.20;1.00
31991;DHT22;18508;49.386;8.370;2022-08-19T10:58:39;27.30;1.00
31991;DHT22;18508;49.386;8.370;2022-08-19T11:01:08;27.40;1.00
31991;DHT22;18508;49.386;8.370;2022-08-19T11:03:38;27.40;1.00
31991;DHT22;18508;49.386;8.370;2022-08-19T11:06:08;27.20;1.00
31991;DHT22;18508;49.386;8.370;2022-08-19T11:08:38;27.40;1.00
31991;DHT22;18508;49.386;8.370;2022-08-19T11:11:08;27.40;1.00
31991;DHT22;18508;49.386;8.370;2022-08-19T11:13:43;27.40;1.00
31991;DHT22;18508;49.386;8.370;2022-08-19T11:16:16;27.30;1.00
31991;DHT22;18508;49.386;8.370;2022-08-19T11:18:48;27.40;1.00
31991;DHT22;18508;49.386;8.370;2022-08-19T11:21:19;27.50;1.00
31991;DHT22;18508;49.386;8.370;2022-08-19T11:23:50;27.40;1.00
31991;DHT22;18508;49.386;8.370;2022-08-19T11:26:20;27.40;1.00
31991;DHT22;18508;49.386;8.370;2022-08-19T11:28:52;27.50;1.00
31991;DHT22;18508;49.386;8.370;2022-08-19T11:31:24;27.70;1.00
31991;DHT22;18508;49.386;8.370;2022-08-19T11:33:58;27.80;1.00
31991;DHT22;18508;49.386;8.370;2022-08-19T11:36:31;27.80;1.00
31991;DHT22;18508;49.386;8.370;2022-08-19T11:39:03;27.70;1.00
31991;DHT22;18508;49.386;8.370;2022-08-19T11:41:34;27.80;1.00
31991;DHT22;18508;49.386;8.370;2022-08-19T11:44:04;27.90;1.00
31991;DHT22;18508;49.386;8.370;2022-08-19T11:46:35;27.90;1.00
31991;DHT22;18508;49.386;8.370;2022-08-19T11:49:08;28.00;1.00
31991;DHT22;18508;49.386;8.370;2022-08-19T11:51:46;28.10;1.00
31991;DHT22;18508;49.386;8.370;2022-08-19T11:54:17;28.20;1.00
31991;DHT22;18508;49.386;8.370;2022-08-19T11:56:50;28.40;1.00
31991;DHT22;18508;49.386;8.370;2022-08-19T11:59:22;28.50;1.00
31991;DHT22;18508;49.386;8.370;2022-08-19T12:01:51;28.70;1.00
31991;DHT22;18508;49.386;8.370;2022-08-19T12:04:22;28.80;1.00
31991;DHT22;18508;49.386;8.370;2022-08-19T12:06:50;28.80;1.00
31991;DHT22;18508;49.386;8.370;2022-08-19T12:09:19;28.90;1.00
31991;DHT22;18508;49.386;8.370;2022-08-19T12:11:49;29.00;1.00
31991;DHT22;18508;49.386;8.370;2022-08-19T12:14:18;28.50;1.00
31991;DHT22;18508;49.386;8.370;2022-08-19T12:16:46;28.40;1.00
31991;DHT22;18508;49.386;8.370;2022-08-19T12:19:18;28.40;1.00
31991;DHT22;18508;49.386;8.370;2022-08-19T12:21:50;28.80;1.00
31991;DHT22;18508;49.386;8.370;2022-08-19T12:24:19;28.80;1.00
31991;DHT22;18508;49.386;8.370;2022-08-19T12:26:50;29.00;1.00
31991;DHT22;18508;49.386;8.370;2022-08-19T12:29:20;29.30;1.00
31991;DHT22;18508;49.386;8.370;2022-08-19T12:31:57;29.60;1.00
31991;DHT22;18508;49.386;8.370;2022-08-19T12:34:30;29.30;1.00
31991;DHT22;18508;49.386;8.370;2022-08-19T12:37:02;28.80;1.00
31991;DHT22;18508;49.386;8.370;2022-08-19T12:39:34;28.70;1.00
31991;DHT22;18508;49.386;8.370;2022-08-19T12:42:04;28.80;1.00
31991;DHT22;18508;49.386;8.370;2022-08-19T12:44:32;28.90;1.00
31991;DHT22;18508;49.386;8.370;2022-08-19T12:47:02;29.10;1.00
31991;DHT22;18508;49.386;8.370;2022-08-19T12:49:34;29.50;1.00
31991;DHT22;18508;49.386;8.370;2022-08-19T12:52:23;29.60;1.00
31991;DHT22;18508;49.386;8.370;2022-08-19T12:54:55;29.80;1.00
31991;DHT22;18508;49.386;8.370;2022-08-19T12:57:26;30.40;1.00
31991;DHT22;18508;49.386;8.370;2022-08-19T13:00:00;30.30;1.00
31991;DHT22;18508;49.386;8.370;2022-08-19T13:02:31;30.50;1.00
31991;DHT22;18508;49.386;8.370;2022-08-19T13:05:06;30.30;1.00
31991;DHT22;18508;49.386;8.370;2022-08-19T13:07:38;30.00;1.00
31991;DHT22;18508;49.386;8.370;2022-08-19T13:10:09;30.20;1.00
31991;DHT22;18508;49.386;8.370;2022-08-19T13:12:46;30.30;1.00
31991;DHT22;18508;49.386;8.370;2022-08-19T13:15:16;30.70;1.00
31991;DHT22;18508;49.386;8.370;2022-08-19T13:17:51;30.60;1.00
31991;DHT22;18508;49.386;8.370;2022-08-19T13:20:21;30.90;1.00
31991;DHT22;18508;49.386;8.370;2022-08-19T13:22:54;31.20;1.00
31991;DHT22;18508;49.386;8.370;2022-08-19T13:25:24;31.20;1.00
31991;DHT22;18508;49.386;8.370;2022-08-19T13:27:52;31.20;1.00
31991;DHT22;18508;49.386;8.370;2022-08-19T13:30:22;31.10;1.00
31991;DHT22;18508;49.386;8.370;2022-08-19T13:33:14;31.10;1.00
31991;DHT22;18508;49.386;8.370;2022-08-19T13:35:48;31.50;1.00
31991;DHT22;18508;49.386;8.370;2022-08-19T13:38:21;32.10;1.00
31991;DHT22;18508;49.386;8.370;2022-08-19T13:40:51;32.30;1.00
31991;DHT22;18508;49.386;8.370;2022-08-19T13:43:31;32.40;1.00
31991;DHT22;18508;49.386;8.370;2022-08-19T13:46:11;32.20;1.00
31991;DHT22;18508;49.386;8.370;2022-08-19T13:48:41;31.80;1.00
31991;DHT22;18508;49.386;8.370;2022-08-19T13:51:24;31.70;1.00
31991;DHT22;18508;49.386;8.370;2022-08-19T13:53:57;31.80;1.00
31991;DHT22;18508;49.386;8.370;2022-08-19T13:56:28;31.90;1.00
31991;DHT22;18508;49.386;8.370;2022-08-19T13:58:56;32.20;1.00
31991;DHT22;18508;49.386;8.370;2022-08-19T14:01:26;32.20;1.00
31991;DHT22;18508;49.386;8.370;2022-08-19T14:03:57;32.50;1.00
31991;DHT22;18508;49.386;8.370;2022-08-19T14:06:26;31.90;1.00
31991;DHT22;18508;49.386;8.370;2022-08-19T14:08:55;31.30;1.00
31991;DHT22;18508;49.386;8.370;2022-08-19T14:11:25;31.00;1.00
31991;DHT22;18508;49.386;8.370;2022-08-19T14:13:54;30.60;1.00
31991;DHT22;18508;49.386;8.370;2022-08-19T14:16:26;30.50;1.00
31991;DHT22;18508;49.386;8.370;2022-08-19T14:18:57;30.80;1.00
31991;DHT22;18508;49.386;8.370;2022-08-19T14:21:26;30.60;1.00
31991;DHT22;18508;49.386;8.370;2022-08-19T14:23:54;30.60;1.00
31991;DHT22;18508;49.386;8.370;2022-08-19T14:26:27;30.20;1.00
31991;DHT22;18508;49.386;8.370;2022-08-19T14:28:59;30.00;1.00
31991;DHT22;18508;49.386;8.370;2022-08-19T14:31:30;30.50;1.00
31991;DHT22;18508;49.386;8.370;2022-08-19T14:33:59;30.90;1.00
31991;DHT22;18508;49.386;8.370;2022-08-19T14:36:27;31.60;1.00
31991;DHT22;18508;49.386;8.370;2022-08-19T14:38:56;32.00;1.00
31991;DHT22;18508;49.386;8.370;2022-08-19T14:41:28;32.20;1.00
31991;DHT22;18508;49.386;8.370;2022-08-19T14:43:57;32.30;1.00
31991;DHT22;18508;49.386;8.370;2022-08-19T14:46:27;32.40;99.90
31991;DHT22;18508;49.386;8.370;2022-08-19T14:48:56;32.00;99.90
31991;DHT22;18508;49.386;8.370;2022-08-19T14:51:26;31.80;99.90
31991;DHT22;18508;49.386;8.370;2022-08-19T14:53:54;31.40;99.90
31991;DHT22;18508;49.386;8.370;2022-08-19T14:56:25;30.90;99.90
31991;DHT22;18508;49.386;8.370;2022-08-19T14:58:56;30.80;99.90
31991;DHT22;18508;49.386;8.370;2022-08-19T15:01:28;30.90;99.90
31991;DHT22;18508;49.386;8.370;2022-08-19T15:04:03;31.30;99.90
31991;DHT22;18508;49.386;8.370;2022-08-19T15:06:32;31.20;99.90
31991;DHT22;18508;49.386;8.370;2022-08-19T15:09:01;31.20;99.90
31991;DHT22;18508;49.386;8.370;2022-08-19T15:11:33;31.10;99.90
31991;DHT22;18508;49.386;8.370;2022-08-19T15:14:03;30.80;99.90
31991;DHT22;18508;49.386;8.370;2022-08-19T15:16:35;30.80;99.90
31991;DHT22;18508;49.386;8.370;2022-08-19T15:19:08;30.70;99.90
31991;DHT22;18508;49.386;8.370;2022-08-19T15:21:36;30.80;99.90
31991;DHT22;18508;49.386;8.370;2022-08-19T15:24:05;30.80;99.90
31991;DHT22;18508;49.386;8.370;2022-08-19T15:26:34;30.90;99.90
31991;DHT22;18508;49.386;8.370;2022-08-19T15:29:05;30.90;99.90
31991;DHT22;18508;49.386;8.370;2022-08-19T15:31:34;30.70;99.90
31991;DHT22;18508;49.386;8.370;2022-08-19T15:34:05;30.20;99.90
31991;DHT22;18508;49.386;8.370;2022-08-19T15:36:39;30.20;99.90
31991;DHT22;18508;49.386;8.370;2022-08-19T15:39:10;30.00;99.90
31991;DHT22;18508;49.386;8.370;2022-08-19T15:41:42;29.80;99.90
31991;DHT22;18508;49.386;8.370;2022-08-19T15:44:18;29.80;99.90
31991;DHT22;18508;49.386;8.370;2022-08-19T15:46:48;29.80;99.90
31991;DHT22;18508;49.386;8.370;2022-08-19T15:49:21;29.80;99.90
31991;DHT22;18508;49.386;8.370;2022-08-19T15:52:10;29.90;99.90
31991;DHT22;18508;49.386;8.370;2022-08-19T15:54:41;30.30;99.90
31991;DHT22;18508;49.386;8.370;2022-08-19T15:57:24;30.70;99.90
31991;DHT22;18508;49.386;8.370;2022-08-19T16:00:14;30.80;99.90
31991;DHT22;18508;49.386;8.370;2022-08-19T16:03:00;31.00;99.90
31991;DHT22;18508;49.386;8.370;2022-08-19T16:05:47;30.60;99.90
31991;DHT22;18508;49.386;8.370;2022-08-19T16:08:34;30.30;99.90
31991;DHT22;18508;49.386;8.370;2022-08-19T16:11:17;30.20;99.90